Time;durP1;ratioP1;P1;durP2;ratioP2;P2;SDS_P1;SDS_P2;PMS_P1;PMS_P2;Temp;Humidity;BMP_temperature;BMP_pressure;BME280_temperature;BME280_humidity;BME280_pressure;Samples;Min_cycle;Max_cycle;Signal;HPM_P1;HPM_P2
2022/01/06 00:01:49;;;;;;;10.95;8.13;;;;;;;4.31;100.00;97941.88;1736778;82;21046;-71
2022/01/06 00:04:16;;;;;;;11.45;7.87;;;;;;;4.28;100.00;97941.09;1748224;82;21002;-73
2022/01/06 00:06:43;;;;;;;10.85;7.17;;;;;;;4.31;100.00;97944.57;1737754;82;21078;-72
2022/01/06 00:09:11;;;;;;;8.70;6.45;;;;;;;4.34;100.00;97947.52;1734395;82;21031;-71
2022/01/06 00:11:37;;;;;;;9.33;6.70;;;;;;;4.35;100.00;97945.11;1734811;82;21078;-72
2022/01/06 00:14:12;;;;;;;10.70;6.97;;;;;;;4.37;100.00;97955.05;1743640;82;21011;-71
2022/01/06 00:16:44;;;;;;;10.25;6.37;;;;;;;4.36;100.00;97952.08;1734052;82;21078;-71
2022/01/06 00:24:19;;;;;;;9.25;5.22;;;;;;;4.40;100.00;97953.69;1745893;80;20975;-71
2022/01/06 00:26:45;;;;;;;7.95;5.75;;;;;;;4.43;100.00;97960.69;1736392;82;21050;-71
2022/01/06 00:29:11;;;;;;;7.60;4.78;;;;;;;4.41;100.00;97969.59;1722798;82;21018;-71
2022/01/06 00:31:38;;;;;;;7.58;4.40;;;;;;;4.33;100.00;97978.23;1723123;82;21613;-72
2022/01/06 00:34:08;;;;;;;6.10;4.50;;;;;;;4.35;100.00;97988.20;1697542;84;21038;-71
2022/01/06 00:36:34;;;;;;;6.37;4.05;;;;;;;4.39;100.00;97989.25;1686227;84;21118;-72
2022/01/06 00:39:01;;;;;;;6.80;4.22;;;;;;;4.42;100.00;97988.73;1734492;82;21031;-72
2022/01/06 00:41:28;;;;;;;8.00;4.37;;;;;;;4.40;100.00;97984.13;1746898;82;21078;-72
2022/01/06 00:43:54;;;;;;;7.10;4.08;;;;;;;4.38;100.00;97980.11;1727176;82;21059;-72
2022/01/06 00:46:20;;;;;;;6.28;3.92;;;;;;;4.40;100.00;97983.33;1743136;82;21113;-72
2022/01/06 00:48:47;;;;;;;8.03;4.35;;;;;;;4.41;100.00;98001.11;1744753;82;20994;-72
2022/01/06 00:51:13;;;;;;;8.05;5.35;;;;;;;4.44;100.00;98004.59;1733366;82;21720;-72
2022/01/06 00:53:39;;;;;;;8.00;4.10;;;;;;;4.44;100.00;98008.64;1722260;82;21015;-72
2022/01/06 00:56:06;;;;;;;6.95;4.60;;;;;;;4.38;100.00;98017.83;1722206;82;21530;-72
2022/01/06 00:58:32;;;;;;;7.37;4.50;;;;;;;4.36;100.00;98011.89;1732688;82;20988;-72
2022/01/06 01:00:58;;;;;;;4.58;3.50;;;;;;;4.39;100.00;98002.72;1722953;82;21027;-71
2022/01/06 01:03:25;;;;;;;5.90;4.00;;;;;;;4.44;100.00;97997.33;1746762;82;20987;-71
2022/01/06 01:05:53;;;;;;;6.22;3.92;;;;;;;4.44;100.00;97996.52;1737709;82;21563;-72
2022/01/06 01:08:19;;;;;;;5.33;4.15;;;;;;;4.36;100.00;98010.00;1724140;82;20999;-72
2022/01/06 01:10:46;;;;;;;;;;;;;;;4.33;100.00;98007.86;1720153;82;21055;-72
2022/01/06 01:13:13;;;;;;;6.75;4.75;;;;;;;4.38;100.00;98009.21;1720475;82;20140;-72
2022/01/06 01:15:49;;;;;;;4.83;3.50;;;;;;;4.36;100.00;98000.58;1730657;82;21071;-71
2022/01/06 01:18:14;;;;;;;4.30;3.15;;;;;;;4.41;100.00;97995.19;1720762;82;21019;-71
2022/01/06 01:20:40;;;;;;;5.75;3.80;;;;;;;4.43;100.00;97999.75;1721652;82;21040;-71
2022/01/06 01:23:06;;;;;;;7.65;4.17;;;;;;;4.39;100.00;97999.25;1730483;82;21007;-71
2022/01/06 01:25:33;;;;;;;;;;;;;;;4.39;100.00;97996.55;1734738;82;21011;-71
2022/01/06 01:27:59;;;;;;;7.47;4.55;;;;;;;4.45;100.00;97983.32;1735262;82;20111;-71
2022/01/06 01:30:32;;;;;;;7.47;5.85;;;;;;;4.45;100.00;97980.09;1725546;82;21055;-71
2022/01/06 01:32:54;;;;;;;11.88;8.55;;;;;;;4.50;100.00;97980.05;1732637;81;21574;-71
2022/01/06 01:35:21;;;;;;;13.00;9.05;;;;;;;4.50;100.00;97973.31;1728255;82;20984;-71
2022/01/06 01:37:49;;;;;;;12.68;9.60;;;;;;;4.47;100.00;97981.95;1641074;86;21134;-71
2022/01/06 01:40:15;;;;;;;35.00;22.27;;;;;;;4.46;100.00;97974.16;1715990;82;21581;-71
2022/01/06 01:42:42;;;;;;;20.80;14.13;;;;;;;4.49;100.00;97976.30;1711071;82;21107;-71
2022/01/06 01:45:09;;;;;;;;;;;;;;;4.51;100.00;97974.13;1724999;81;21522;-71
2022/01/06 01:47:42;;;;;;;16.73;12.60;;;;;;;4.53;100.00;97981.42;1731505;82;20134;-71
2022/01/06 01:50:12;;;;;;;11.45;7.78;;;;;;;4.44;100.00;97989.25;1722538;81;21019;-71
2022/01/06 01:52:49;;;;;;;6.97;5.67;;;;;;;4.39;100.00;98003.28;1721342;82;21657;-71
2022/01/06 01:55:21;;;;;;;6.03;4.20;;;;;;;4.36;100.00;97991.68;1732304;82;20979;-72
2022/01/06 01:57:48;;;;;;;6.03;3.83;;;;;;;4.36;100.00;97989.80;1712859;82;21067;-72
2022/01/06 02:00:16;;;;;;;5.80;4.10;;;;;;;4.38;100.00;97981.45;1710378;82;21080;-72
2022/01/06 02:02:42;;;;;;;5.03;3.20;;;;;;;4.39;100.00;97957.48;1712045;82;21110;-71
2022/01/06 02:05:09;;;;;;;4.75;3.33;;;;;;;4.37;100.00;97952.36;1718277;82;21008;-71
2022/01/06 02:07:38;;;;;;;5.92;3.80;;;;;;;4.31;100.00;97959.39;1728877;82;21589;-71
2022/01/06 02:10:09;;;;;;;5.40;3.30;;;;;;;4.30;100.00;97969.89;1719704;82;21059;-72
2022/01/06 02:12:37;;;;;;;6.05;3.50;;;;;;;4.32;100.00;97973.13;1738776;82;21689;-71
2022/01/06 02:15:06;;;;;;;5.78;3.70;;;;;;;4.34;100.00;97976.34;1717392;82;21585;-72
2022/01/06 02:17:33;;;;;;;4.97;3.27;;;;;;;4.35;100.00;97985.52;1720093;82;21036;-71
2022/01/06 02:20:02;;;;;;;5.92;3.37;;;;;;;4.32;100.00;98011.63;1723528;82;21502;-71
2022/01/06 02:22:29;;;;;;;4.97;3.62;;;;;;;4.26;100.00;98020.00;1734803;82;21087;-71
2022/01/06 02:24:55;;;;;;;4.17;3.08;;;;;;;4.23;100.00;98022.70;1731520;82;20980;-72
2022/01/06 02:27:22;;;;;;;5.70;3.33;;;;;;;4.25;100.00;98025.92;1719440;82;21079;-71
2022/01/06 02:29:49;;;;;;;5.85;2.92;;;;;;;4.26;100.00;98029.42;1726662;82;21042;-72
2022/01/06 02:32:17;;;;;;;4.28;2.77;;;;;;;4.23;100.00;98017.31;1728385;81;21050;-72
2022/01/06 02:34:46;;;;;;;3.95;2.70;;;;;;;4.17;100.00;98008.98;1740371;82;20947;-71
2022/01/06 02:37:14;;;;;;;4.80;2.55;;;;;;;4.18;100.00;98017.88;1746149;80;21114;-72
2022/01/06 02:39:42;;;;;;;3.77;2.55;;;;;;;4.20;100.00;98027.29;1741877;82;21039;-72
2022/01/06 02:42:08;;;;;;;3.33;2.40;;;;;;;4.22;100.00;98029.16;1735843;82;21054;-72
2022/01/06 02:44:37;;;;;;;3.30;2.27;;;;;;;4.20;100.00;98054.22;1731714;82;21066;-72
2022/01/06 02:47:07;;;;;;;4.65;2.42;;;;;;;4.20;100.00;98045.33;1740043;82;21075;-71
2022/01/06 02:49:34;;;;;;;3.95;2.65;;;;;;;4.25;100.00;98037.26;1726460;82;21510;-72
2022/01/06 02:52:00;;;;;;;5.55;3.17;;;;;;;4.27;100.00;98040.47;1733942;82;21031;-72
2022/01/06 02:54:27;;;;;;;4.83;3.10;;;;;;;4.23;100.00;98042.09;1733316;82;21482;-72
2022/01/06 02:56:53;;;;;;;;;;;;;;;4.22;100.00;98048.55;1755913;82;21070;-72
2022/01/06 02:59:20;;;;;;;8.85;4.50;;;;;;;4.26;100.00;98055.02;1734108;82;20451;-71
2022/01/06 03:01:46;;;;;;;8.23;4.03;;;;;;;4.25;100.00;98069.02;1741465;80;21105;-72
2022/01/06 03:04:13;;;;;;;6.03;3.70;;;;;;;4.26;100.00;98062.56;1768854;80;21015;-73
2022/01/06 03:06:40;;;;;;;7.65;5.37;;;;;;;4.22;100.00;98056.63;1783937;80;21161;-73
2022/01/06 03:09:07;;;;;;;;;;;;;;;4.21;100.00;98054.50;1736630;80;21034;-72
2022/01/06 03:11:41;;;;;;;12.50;7.97;;;;;;;4.25;100.00;98044.77;1739913;82;20392;-72
2022/01/06 03:14:04;;;;;;;14.10;8.75;;;;;;;4.23;100.00;98060.41;1741150;82;21478;-71
2022/01/06 03:16:30;;;;;;;4.37;2.95;;;;;;;4.26;100.00;98056.36;1753378;82;21023;-71
2022/01/06 03:18:56;;;;;;;7.85;3.37;;;;;;;4.27;100.00;98060.14;1753107;82;20999;-72
2022/01/06 03:21:23;;;;;;;3.77;2.45;;;;;;;4.24;100.00;98066.08;1730340;82;21015;-71
2022/01/06 03:23:49;;;;;;;3.42;2.22;;;;;;;4.25;100.00;98065.54;1737840;82;21121;-71
2022/01/06 03:26:15;;;;;;;5.05;2.85;;;;;;;4.33;100.00;98047.45;1753234;82;21486;-71
2022/01/06 03:28:42;;;;;;;5.62;3.98;;;;;;;4.39;100.00;98054.47;1752866;82;21070;-72
2022/01/06 03:31:08;;;;;;;4.85;3.30;;;;;;;4.40;100.00;98050.14;1739862;82;21023;-71
2022/01/06 03:33:34;;;;;;;5.20;3.52;;;;;;;4.43;100.00;98050.94;1723629;82;21055;-71
2022/01/06 03:36:01;;;;;;;4.85;2.98;;;;;;;4.40;100.00;98054.19;1739141;82;21629;-71
2022/01/06 03:38:27;;;;;;;4.08;2.83;;;;;;;4.40;100.00;98052.02;1733906;82;21067;-71
2022/01/06 03:40:54;;;;;;;3.17;2.62;;;;;;;4.43;100.00;98055.52;1717717;82;21069;-72
2022/01/06 03:43:21;;;;;;;3.60;2.70;;;;;;;4.45;100.00;98070.89;1715472;82;21070;-71
2022/01/06 03:45:47;;;;;;;4.05;2.95;;;;;;;4.44;100.00;98077.34;1713978;82;21098;-72
2022/01/06 03:48:14;;;;;;;5.12;3.15;;;;;;;4.42;100.00;98079.52;1725460;82;21082;-72
2022/01/06 03:50:41;;;;;;;4.20;3.15;;;;;;;4.44;100.00;98087.59;1714414;82;21072;-72
2022/01/06 03:53:08;;;;;;;5.75;3.67;;;;;;;4.47;100.00;98081.66;1714889;82;21020;-72
2022/01/06 03:55:36;;;;;;;5.58;4.12;;;;;;;4.48;100.00;98086.50;1733719;82;21187;-72
2022/01/06 03:58:03;;;;;;;5.78;4.40;;;;;;;4.45;100.00;98083.83;1734775;82;21496;-73
2022/01/06 04:00:29;;;;;;;5.70;4.55;;;;;;;4.40;100.00;98086.52;1716462;82;20988;-71
2022/01/06 04:02:56;;;;;;;4.87;3.83;;;;;;;4.40;100.00;98081.66;1713283;82;21038;-72
2022/01/06 04:05:22;;;;;;;6.62;4.67;;;;;;;4.43;100.00;98087.84;1682364;84;21008;-72
2022/01/06 04:07:50;;;;;;;6.22;4.37;;;;;;;4.41;100.00;98076.55;1684567;84;21059;-71
2022/01/06 04:10:18;;;;;;;7.78;5.50;;;;;;;4.36;100.00;98088.66;1681908;84;21051;-72
2022/01/06 04:12:45;;;;;;;8.00;5.55;;;;;;;4.35;100.00;98094.63;1681198;84;21051;-72
2022/01/06 04:15:13;;;;;;;7.12;4.95;;;;;;;4.38;100.00;98098.11;1698891;84;21099;-72
2022/01/06 04:17:41;;;;;;;7.25;5.05;;;;;;;4.41;100.00;98110.23;1696365;84;21070;-72
2022/01/06 04:20:09;;;;;;;7.30;5.15;;;;;;;4.40;100.00;98116.15;1693088;84;21023;-73
2022/01/06 04:22:36;;;;;;;7.55;5.20;;;;;;;4.33;100.00;98116.97;1691946;84;21122;-72
2022/01/06 04:25:03;;;;;;;7.42;4.90;;;;;;;4.34;100.00;98113.73;1685847;83;21526;-72
2022/01/06 04:27:30;;;;;;;6.65;5.10;;;;;;;4.40;100.00;98103.21;1672950;84;21569;-72
2022/01/06 04:29:56;;;;;;;8.40;5.67;;;;;;;4.41;100.00;98107.00;1671417;84;21657;-73
2022/01/06 04:32:22;;;;;;;7.17;5.35;;;;;;;4.38;100.00;98113.47;1697240;83;21073;-72
2022/01/06 04:34:49;;;;;;;8.20;6.05;;;;;;;4.35;100.00;98111.32;1718519;83;21034;-72
2022/01/06 04:37:15;;;;;;;7.85;5.80;;;;;;;4.38;100.00;98111.59;1715135;83;21066;-71
2022/01/06 04:39:42;;;;;;;;;;;;;;;4.40;100.00;98114.80;1698883;83;21045;-72
2022/01/06 04:42:08;;;;;;;9.68;6.25;;;;;;;4.39;100.00;98109.14;1704218;84;20154;-72
2022/01/06 04:44:35;;;;;;;10.32;6.58;;;;;;;4.28;100.00;98114.29;1702169;83;21049;-72
2022/01/06 04:47:02;;;;;;;8.88;5.72;;;;;;;4.31;100.00;98104.85;1718604;83;21025;-72
2022/01/06 04:49:28;;;;;;;8.58;6.55;;;;;;;4.35;100.00;98105.40;1723866;83;21053;-73
2022/01/06 04:51:55;;;;;;;8.60;6.70;;;;;;;4.36;100.00;98104.83;1705786;83;21611;-72
2022/01/06 04:54:22;;;;;;;8.45;6.65;;;;;;;4.32;100.00;98110.52;1702066;83;21080;-72
2022/01/06 04:56:48;;;;;;;8.28;5.97;;;;;;;4.34;100.00;98113.20;1671830;85;21476;-72
2022/01/06 04:59:14;;;;;;;7.85;6.10;;;;;;;4.38;100.00;98118.32;1695017;84;21078;-72
2022/01/06 05:01:40;;;;;;;9.08;6.62;;;;;;;4.38;100.00;98133.14;1683018;84;21070;-72
2022/01/06 05:04:07;;;;;;;9.15;6.67;;;;;;;4.34;100.00;98142.02;1687914;84;21542;-73
2022/01/06 05:13:59;;;;;;;8.70;6.47;;;;;;;4.31;100.00;98134.48;1798556;78;22975;-71
2022/01/06 05:16:25;;;;;;;7.45;5.40;;;;;;;4.29;100.00;98146.86;1760437;81;21565;-70
2022/01/06 05:18:51;;;;;;;7.95;5.55;;;;;;;4.32;100.00;98151.70;1730664;82;21027;-71
2022/01/06 05:21:18;;;;;;;9.95;5.50;;;;;;;4.33;100.00;98147.94;1741089;82;21075;-71
2022/01/06 05:23:44;;;;;;;7.03;5.20;;;;;;;4.27;100.00;98147.69;1741212;82;21022;-73
2022/01/06 05:26:11;;;;;;;8.48;5.55;;;;;;;4.27;100.00;98153.07;1735351;82;21062;-71
2022/01/06 05:28:38;;;;;;;7.80;5.00;;;;;;;4.30;100.00;98159.27;1746674;82;21066;-70
2022/01/06 05:31:04;;;;;;;;;;;;;;;4.32;100.00;98157.66;1749684;82;21695;-70
2022/01/06 05:33:31;;;;;;;6.60;4.80;;;;;;;4.30;100.00;98166.53;1723759;82;20140;-70
2022/01/06 05:35:58;;;;;;;8.55;5.17;;;;;;;4.23;100.00;98163.30;1741899;82;21118;-70
2022/01/06 05:38:24;;;;;;;8.03;5.40;;;;;;;4.27;100.00;98165.20;1752899;82;21545;-70
2022/01/06 05:40:50;;;;;;;6.90;4.92;;;;;;;4.30;100.00;98168.69;1747721;82;21625;-71
2022/01/06 05:43:19;;;;;;;7.70;5.83;;;;;;;4.28;100.00;98179.47;1738735;82;21062;-70
2022/01/06 05:45:45;;;;;;;7.28;5.37;;;;;;;4.28;100.00;98172.74;1730054;82;21098;-71
2022/01/06 05:48:11;;;;;;;8.50;5.67;;;;;;;4.33;100.00;98180.80;1750740;82;21026;-71
2022/01/06 05:50:38;;;;;;;7.62;6.10;;;;;;;4.38;100.00;98194.29;1739042;82;21573;-71
2022/01/06 05:53:05;;;;;;;8.80;6.40;;;;;;;4.37;100.00;98195.36;1740191;82;21098;-70
2022/01/06 05:55:31;;;;;;;8.63;6.35;;;;;;;4.32;100.00;98198.85;1752961;82;21015;-72
2022/01/06 05:57:57;;;;;;;7.95;5.87;;;;;;;4.32;100.00;98200.77;1751235;82;21093;-71
2022/01/06 06:00:24;;;;;;;7.58;5.90;;;;;;;4.34;100.00;98208.84;1746392;82;21074;-71
2022/01/06 06:02:50;;;;;;;7.28;5.53;;;;;;;4.39;100.00;98206.70;1735360;82;21068;-71
2022/01/06 06:05:17;;;;;;;6.80;5.33;;;;;;;4.38;100.00;98218.00;1753095;82;21576;-71
2022/01/06 06:07:43;;;;;;;7.17;5.12;;;;;;;4.33;100.00;98222.03;1746812;82;21085;-71
2022/01/06 06:10:11;;;;;;;7.30;4.70;;;;;;;4.31;100.00;98226.89;1732543;82;21023;-71
2022/01/06 06:12:38;;;;;;;5.87;4.70;;;;;;;4.34;100.00;98235.78;1740675;81;21566;-70
2022/01/06 06:15:06;;;;;;;6.95;5.15;;;;;;;4.34;100.00;98239.82;1727843;82;21051;-70
2022/01/06 06:17:34;;;;;;;6.33;4.92;;;;;;;4.30;100.00;98237.91;1731611;82;21543;-70
2022/01/06 06:20:01;;;;;;;6.28;4.72;;;;;;;4.31;100.00;98235.50;1720023;82;20988;-70
2022/01/06 06:22:27;;;;;;;7.10;4.87;;;;;;;4.35;100.00;98240.09;1719873;82;21606;-70
2022/01/06 06:24:53;;;;;;;7.30;5.03;;;;;;;4.37;100.00;98239.28;1733308;82;21007;-70
2022/01/06 06:27:19;;;;;;;7.35;4.95;;;;;;;4.30;100.00;98236.04;1710419;82;21705;-70
2022/01/06 06:29:46;;;;;;;6.25;4.10;;;;;;;4.28;100.00;98257.06;1732838;82;21014;-70
2022/01/06 06:32:12;;;;;;;6.45;4.97;;;;;;;4.31;100.00;98261.91;1714063;82;21126;-70
2022/01/06 06:34:39;;;;;;;7.85;4.35;;;;;;;4.30;100.00;98262.16;1715850;82;21020;-71
2022/01/06 06:37:05;;;;;;;6.67;3.90;;;;;;;4.26;100.00;98263.77;1710377;82;21047;-71
2022/01/06 06:39:31;;;;;;;4.67;3.10;;;;;;;4.23;100.00;98254.34;1707858;82;21026;-71
2022/01/06 06:41:58;;;;;;;5.85;3.42;;;;;;;4.27;100.00;98260.82;1736740;82;21067;-71
2022/01/06 06:44:24;;;;;;;5.45;3.12;;;;;;;4.27;100.00;98272.13;1737792;82;21024;-71
2022/01/06 06:49:43;;;;;;;5.05;2.87;;;;;;;4.17;100.00;98275.62;1797551;78;22898;-72
2022/01/06 06:52:09;;;;;;;4.83;2.75;;;;;;;4.12;100.00;98276.13;1735963;81;21047;-71
2022/01/06 06:54:36;;;;;;;4.80;2.47;;;;;;;4.18;100.00;98279.13;1727967;83;21073;-71
2022/01/06 06:57:02;;;;;;;;;;;;;;;4.16;100.00;98283.42;1733635;83;21568;-71
2022/01/06 06:59:29;;;;;;;4.72;2.45;;;;;;;4.11;100.00;98278.56;1731117;82;20115;-71
2022/01/06 07:01:55;;;;;;;4.72;2.30;;;;;;;4.01;100.00;98298.17;1728828;81;21531;-72
2022/01/06 07:04:22;;;;;;;5.33;2.17;;;;;;;4.03;100.00;98310.04;1727977;83;21034;-72
2022/01/06 07:06:48;;;;;;;5.83;2.08;;;;;;;3.96;100.00;98313.80;1726482;82;21589;-71
2022/01/06 07:09:15;;;;;;;8.13;2.27;;;;;;;3.83;100.00;98319.64;1730549;83;21101;-72
2022/01/06 07:11:42;;;;;;;4.87;2.05;;;;;;;3.74;100.00;98314.49;1728572;82;21038;-70
2022/01/06 07:14:09;;;;;;;;;;;;;;;3.67;100.00;98321.18;1727678;83;21686;-71
2022/01/06 07:16:35;;;;;;;3.60;1.72;;;;;;;3.52;100.00;98324.59;1721278;81;20158;-71
2022/01/06 07:19:01;;;;;;;5.80;1.85;;;;;;;3.30;100.00;98321.22;1731054;82;21177;-70
2022/01/06 07:21:28;;;;;;;4.90;1.75;;;;;;;3.22;100.00;98329.79;1729614;83;21369;-71
2022/01/06 07:23:55;;;;;;;4.65;1.60;;;;;;;3.22;100.00;98323.87;1724449;83;21108;-71
2022/01/06 07:26:21;;;;;;;5.47;2.17;;;;;;;3.15;100.00;98319.26;1727846;82;21042;-70
2022/01/06 07:28:47;;;;;;;5.10;1.90;;;;;;;3.07;100.00;98321.07;1731029;81;21543;-71
2022/01/06 07:31:14;;;;;;;7.15;2.10;;;;;;;3.04;100.00;98321.59;1729604;81;21119;-74
2022/01/06 07:33:41;;;;;;;4.95;2.00;;;;;;;3.01;100.00;98327.48;1699091;83;21553;-72
2022/01/06 07:36:07;;;;;;;4.83;2.37;;;;;;;2.91;100.00;98330.06;1726901;82;21003;-71
2022/01/06 07:38:34;;;;;;;4.33;2.15;;;;;;;2.85;100.00;98331.91;1730930;83;21074;-72
2022/01/06 07:41:01;;;;;;;5.25;2.40;;;;;;;2.84;100.00;98335.66;1730121;81;21082;-72
2022/01/06 07:43:27;;;;;;;5.85;2.45;;;;;;;2.78;100.00;98333.19;1756684;81;21036;-71
2022/01/06 07:45:54;;;;;;;;;;;;;;;2.74;100.00;98329.38;1735055;81;21109;-70
2022/01/06 07:48:26;;;;;;;7.35;2.87;;;;;;;2.77;100.00;98334.24;1731192;82;20130;-70
2022/01/06 07:50:48;;;;;;;6.55;2.85;;;;;;;2.71;100.00;98327.21;1731076;82;21059;-69
2022/01/06 07:53:14;;;;;;;7.08;2.60;;;;;;;2.67;100.00;98334.16;1730381;83;21062;-70
2022/01/06 07:55:41;;;;;;;6.28;2.35;;;;;;;2.64;100.00;98331.45;1700997;84;21094;-69
2022/01/06 07:58:07;;;;;;;5.78;1.98;;;;;;;2.67;100.00;98334.97;1700826;84;21070;-70
2022/01/06 08:00:33;;;;;;;5.20;2.25;;;;;;;2.65;100.00;98328.23;1700436;84;21051;-70
2022/01/06 08:03:00;;;;;;;5.33;2.50;;;;;;;2.60;100.00;98337.05;1700181;84;21070;-70
2022/01/06 08:05:27;;;;;;;5.85;2.60;;;;;;;2.59;100.00;98338.11;1718874;82;21490;-70
2022/01/06 08:07:55;;;;;;;7.17;2.72;;;;;;;2.63;100.00;98333.04;1730858;82;21011;-69
2022/01/06 08:10:21;;;;;;;7.97;3.40;;;;;;;2.60;100.00;98332.20;1730948;83;21027;-69
2022/01/06 08:12:49;;;;;;;7.75;3.15;;;;;;;2.55;100.00;98342.36;1723883;83;21019;-69
2022/01/06 08:15:16;;;;;;;;;;;;;;;2.55;100.00;98347.73;1702562;84;21113;-69
2022/01/06 08:17:42;;;;;;;7.20;2.72;;;;;;;2.60;100.00;98349.14;1700355;84;20168;-70
2022/01/06 08:20:10;;;;;;;6.17;3.37;;;;;;;2.49;100.00;98341.52;1700255;84;21055;-70
2022/01/06 08:22:37;;;;;;;6.95;3.05;;;;;;;2.44;100.00;98350.84;1712600;82;21031;-68
2022/01/06 08:25:04;;;;;;;;;;;;;;;2.48;100.00;98365.41;1724870;83;21027;-70
2022/01/06 08:27:31;;;;;;;;;;;;;;;2.55;100.00;98375.16;1706867;83;20144;-69
2022/01/06 08:29:57;;;;;;;8.78;2.95;;;;;;;2.47;100.00;98375.07;1700189;84;20431;-69
2022/01/06 08:32:24;;;;;;;9.15;3.60;;;;;;;2.39;100.00;98389.76;1700226;84;21094;-69
2022/01/06 08:34:50;;;;;;;7.72;3.20;;;;;;;2.44;100.00;98395.17;1700138;84;21581;-70
2022/01/06 08:37:17;;;;;;;6.30;3.15;;;;;;;2.55;100.00;98404.70;1700144;84;21055;-70
2022/01/06 08:39:43;;;;;;;9.78;3.55;;;;;;;2.60;100.00;98407.44;1717356;83;21561;-70
2022/01/06 08:42:12;;;;;;;;;;;;;;;2.61;100.00;98399.66;1731235;83;21031;-69
2022/01/06 08:44:39;;;;;;;7.75;3.10;;;;;;;2.61;100.00;98394.28;1730659;83;20493;-70
2022/01/06 08:47:06;;;;;;;6.83;2.80;;;;;;;2.54;100.00;98396.36;1730778;83;21401;-69
2022/01/06 08:49:33;;;;;;;5.92;2.75;;;;;;;2.63;100.00;98398.86;1721725;83;21082;-69
2022/01/06 08:52:00;;;;;;;9.53;3.83;;;;;;;2.66;100.00;98388.98;1717844;83;21043;-70
2022/01/06 08:54:26;;;;;;;9.13;3.33;;;;;;;2.62;100.00;98391.36;1717937;82;21098;-70
2022/01/06 08:56:52;;;;;;;9.50;4.17;;;;;;;2.58;100.00;98394.27;1694098;82;21095;-70
2022/01/06 08:59:19;;;;;;;9.38;3.05;;;;;;;2.64;100.00;98395.13;1687833;84;21056;-71
2022/01/06 09:01:45;;;;;;;5.72;2.50;;;;;;;2.74;100.00;98400.06;1690826;83;21364;-70
2022/01/06 09:04:12;;;;;;;6.08;2.40;;;;;;;2.76;100.00;98387.73;1687666;84;21590;-71
2022/01/06 09:06:38;;;;;;;6.70;2.98;;;;;;;2.77;100.00;98395.52;1687859;85;21135;-69
2022/01/06 09:09:04;;;;;;;7.83;2.70;;;;;;;2.77;100.00;98406.80;1687994;84;21503;-69
2022/01/06 09:11:32;;;;;;;5.75;2.20;;;;;;;2.85;100.00;98416.58;1688106;83;21704;-69
2022/01/06 09:13:59;;;;;;;7.42;2.60;;;;;;;3.03;100.00;98410.55;1687679;84;21115;-69
2022/01/06 09:16:26;;;;;;;8.78;3.25;;;;;;;3.16;100.00;98415.50;1687662;84;21150;-69
2022/01/06 09:18:53;;;;;;;7.05;2.98;;;;;;;3.15;100.00;98413.38;1687926;85;21047;-69
2022/01/06 09:21:22;;;;;;;5.95;3.22;;;;;;;3.11;100.00;98417.63;1706431;83;21107;-69
2022/01/06 09:23:47;;;;;;;6.47;3.15;;;;;;;3.08;100.00;98411.43;1717932;82;21091;-69
2022/01/06 09:26:13;;;;;;;6.05;2.87;;;;;;;3.17;100.00;98402.34;1718095;82;21060;-68
2022/01/06 09:28:40;;;;;;;5.42;3.20;;;;;;;3.18;100.00;98415.55;1718144;83;21027;-69
2022/01/06 09:31:07;;;;;;;7.08;3.45;;;;;;;3.15;100.00;98417.41;1717998;82;21582;-68
2022/01/06 09:33:33;;;;;;;;;;;;;;;3.13;100.00;98414.67;1685973;85;21034;-68
2022/01/06 09:35:59;;;;;;;6.85;2.98;;;;;;;3.11;100.00;98412.26;1670480;84;20104;-69
2022/01/06 09:38:26;;;;;;;6.83;3.12;;;;;;;3.06;100.00;98416.23;1683297;85;21067;-68
2022/01/06 09:40:52;;;;;;;5.37;2.83;;;;;;;3.03;100.00;98431.53;1683109;85;21542;-68
2022/01/06 09:43:25;;;;;;;6.37;2.55;;;;;;;2.94;100.00;98435.76;1683429;85;21039;-68
2022/01/06 09:45:52;;;;;;;7.90;3.45;;;;;;;2.87;100.00;98428.43;1683277;85;21039;-67
2022/01/06 09:48:21;;;;;;;;;;;;;;;2.82;100.00;98413.59;1685168;84;21066;-68
2022/01/06 09:50:48;;;;;;;7.17;3.20;;;;;;;2.86;100.00;98420.08;1673894;84;20104;-68
2022/01/06 09:53:14;;;;;;;6.22;3.33;;;;;;;2.83;100.00;98421.41;1671103;85;21079;-68
2022/01/06 09:55:41;;;;;;;9.05;3.40;;;;;;;2.87;100.00;98414.99;1666432;85;21651;-68
2022/01/06 09:58:07;;;;;;;9.73;3.30;;;;;;;2.96;100.00;98416.14;1668360;84;21020;-67
2022/01/06 10:00:35;;;;;;;6.47;3.10;;;;;;;3.22;100.00;98422.56;1709132;82;21041;-67
2022/01/06 10:03:04;;;;;;;7.25;2.80;;;;;;;3.53;100.00;98430.34;1717899;82;21049;-69
2022/01/06 10:05:41;;;;;;;5.53;2.83;;;;;;;3.76;100.00;98413.27;1717522;83;21049;-68
2022/01/06 10:08:11;;;;;;;7.53;3.40;;;;;;;3.98;100.00;98407.75;1717853;82;21045;-69
2022/01/06 10:10:40;;;;;;;6.25;2.75;;;;;;;4.10;100.00;98415.63;1706369;82;21111;-69
2022/01/06 10:13:08;;;;;;;6.45;2.80;;;;;;;4.18;100.00;98405.71;1689460;83;21520;-69
2022/01/06 10:15:37;;;;;;;5.05;2.42;;;;;;;4.10;100.00;98398.94;1688676;83;21911;-69
2022/01/06 10:18:16;;;;;;;4.90;2.47;;;;;;;4.05;100.00;98402.13;1688016;84;21443;-69
2022/01/06 10:20:43;;;;;;;5.35;2.30;;;;;;;4.03;100.00;98397.55;1687810;85;21075;-69
2022/01/06 10:23:14;;;;;;;;;;;;;;;4.07;100.00;98386.53;1690428;84;21047;-69
2022/01/06 10:25:49;;;;;;;6.33;2.52;;;;;;;4.24;100.00;98396.04;1713697;81;20115;-69
2022/01/06 10:28:18;;;;;;;5.80;2.70;;;;;;;4.31;100.00;98380.98;1732678;82;21097;-69
2022/01/06 10:30:48;;;;;;;6.22;2.70;;;;;;;4.29;100.00;98369.11;1733033;81;21066;-69
2022/01/06 10:33:19;;;;;;;5.95;2.40;;;;;;;4.24;100.00;98377.19;1708748;83;21455;-69
2022/01/06 10:35:46;;;;;;;7.47;2.87;;;;;;;4.16;100.00;98376.33;1714403;82;21073;-69
2022/01/06 10:38:13;;;;;;;6.22;2.98;;;;;;;4.05;100.00;98381.93;1717673;83;21049;-70
2022/01/06 10:40:39;;;;;;;7.03;3.25;;;;;;;3.97;100.00;98377.84;1711662;82;21067;-69
2022/01/06 10:43:06;;;;;;;8.50;3.27;;;;;;;3.96;100.00;98392.41;1713486;83;21029;-69
2022/01/06 10:45:34;;;;;;;5.65;2.95;;;;;;;3.99;100.00;98398.08;1712406;82;21041;-69
2022/01/06 10:48:02;;;;;;;6.85;3.22;;;;;;;3.93;100.00;98403.14;1718097;82;21061;-69
2022/01/06 10:50:35;;;;;;;7.67;3.10;;;;;;;3.79;100.00;98401.98;1717389;82;21030;-69
2022/01/06 10:53:05;;;;;;;6.35;2.67;;;;;;;3.67;100.00;98397.88;1708689;82;21004;-69
2022/01/06 10:55:38;;;;;;;7.97;3.33;;;;;;;3.55;100.00;98391.86;1691034;83;21078;-69
2022/01/06 10:58:13;;;;;;;6.92;3.17;;;;;;;3.56;100.00;98394.31;1716812;82;21012;-69
2022/01/06 11:00:42;;;;;;;8.98;3.95;;;;;;;3.56;100.00;98402.38;1717871;82;21127;-69
2022/01/06 11:03:15;;;;;;;8.15;3.70;;;;;;;3.53;100.00;98406.94;1704558;82;21006;-69
2022/01/06 11:05:45;;;;;;;8.20;4.15;;;;;;;3.48;100.00;98410.39;1732708;81;21042;-68
2022/01/06 11:08:13;;;;;;;8.43;3.85;;;;;;;3.45;100.00;98407.41;1730566;83;20995;-69
2022/01/06 11:10:47;;;;;;;7.00;3.60;;;;;;;3.46;100.00;98406.34;1712313;82;21123;-70
2022/01/06 11:13:08;;;;;;;6.90;3.58;;;;;;;3.50;100.00;98410.97;1715650;82;21009;-69
2022/01/06 11:15:34;;;;;;;6.80;3.80;;;;;;;3.48;100.00;98405.55;1671502;83;21190;-71
2022/01/06 11:18:03;;;;;;;6.97;4.30;;;;;;;3.41;100.00;98394.19;1716357;82;21055;-71
2022/01/06 11:20:29;;;;;;;8.65;4.58;;;;;;;3.37;100.00;98389.86;1714400;82;21062;-70
2022/01/06 11:22:57;;;;;;;8.65;4.60;;;;;;;3.32;100.00;98391.72;1719066;82;21001;-71
2022/01/06 11:25:36;;;;;;;8.60;4.55;;;;;;;3.35;100.00;98396.58;1714171;82;21027;-70
2022/01/06 11:28:09;;;;;;;10.23;4.60;;;;;;;3.41;100.00;98404.42;1713295;83;21048;-70
2022/01/06 11:30:45;;;;;;;10.45;5.00;;;;;;;3.44;100.00;98407.94;1731243;81;21621;-71
2022/01/06 11:33:13;;;;;;;8.50;4.40;;;;;;;3.44;100.00;98423.27;1713440;82;21019;-71
2022/01/06 11:35:54;;;;;;;8.55;4.70;;;;;;;3.42;100.00;98422.20;1717388;83;21546;-70
2022/01/06 11:38:25;;;;;;;8.35;5.20;;;;;;;3.42;100.00;98424.89;1717594;82;21049;-72
2022/01/06 11:41:09;;;;;;;8.78;4.50;;;;;;;3.48;100.00;98425.72;1705225;82;21579;-70
2022/01/06 11:43:44;;;;;;;10.03;5.33;;;;;;;3.48;100.00;98419.81;1719730;82;21004;-71
2022/01/06 11:46:11;;;;;;;8.48;5.12;;;;;;;3.43;100.00;98427.86;1712222;82;21625;-70
2022/01/06 11:48:54;;;;;;;9.90;5.47;;;;;;;3.37;100.00;98424.83;1707219;84;21090;-69
2022/01/06 11:51:28;;;;;;;9.33;4.90;;;;;;;3.32;100.00;98426.69;1663402;85;21100;-70
2022/01/06 11:53:55;;;;;;;7.00;4.53;;;;;;;3.36;100.00;98417.03;1714351;83;20995;-69